Time;durP1;ratioP1;P1;durP2;ratioP2;P2;SDS_P1;SDS_P2;PMS_P1;PMS_P2;Temp;Humidity;BMP_temperature;BMP_pressure;BME280_temperature;BME280_humidity;BME280_pressure;Samples;Min_cycle;Max_cycle;Signal;HPM_P1;HPM_P2
2022/12/01 00:02:10;;;;;;;19.00;14.90;;;5.60;99.90;;;;;;5083350;28;20209;-63
2022/12/01 00:04:36;;;;;;;20.57;15.80;;;5.50;99.90;;;;;;5083362;28;20222;-64
2022/12/01 00:07:01;;;;;;;19.53;15.93;;;5.50;99.90;;;;;;5082154;28;20174;-62
2022/12/01 00:12:11;;;;;;;22.20;16.90;;;5.20;99.90;;;;;;5083745;28;20197;-63
2022/12/01 00:14:36;;;;;;;54.20;20.37;;;5.30;99.90;;;;;;5083042;28;20190;-61
2022/12/01 00:17:03;;;;;;;24.90;18.17;;;5.20;99.90;;;;;;5083042;28;20190;-63
2022/12/01 00:19:29;;;;;;;23.57;18.27;;;5.60;99.90;;;;;;5084046;28;20190;-63
2022/12/01 00:21:55;;;;;;;22.37;17.53;;;5.30;99.90;;;;;;5082104;28;20179;-61
2022/12/01 00:24:22;;;;;;;20.80;16.43;;;5.40;99.90;;;;;;5064938;28;20576;-63
2022/12/01 00:26:48;;;;;;;20.33;16.10;;;5.30;99.90;;;;;;5064515;28;20185;-63
2022/12/01 00:29:13;;;;;;;21.63;17.27;;;5.30;99.90;;;;;;5065695;28;20174;-63
2022/12/01 00:31:39;;;;;;;22.03;17.23;;;5.30;99.90;;;;;;5083187;28;20182;-63
2022/12/01 00:34:05;;;;;;;21.23;16.77;;;5.40;99.90;;;;;;5065249;28;20269;-63
2022/12/01 00:36:31;;;;;;;20.53;15.97;;;5.30;99.90;;;;;;5064773;28;20198;-62
2022/12/01 00:38:56;;;;;;;19.37;15.30;;;5.20;99.90;;;;;;5065266;28;20213;-64
2022/12/01 00:41:23;;;;;;;16.70;14.47;;;5.60;99.90;;;;;;5083830;28;20173;-63
2022/12/01 00:43:49;;;;;;;17.33;14.57;;;5.90;99.90;;;;;;5064324;28;20205;-61
2022/12/01 00:46:15;;;;;;;19.13;15.60;;;5.10;99.90;;;;;;5077723;28;20194;-60
2022/12/01 00:48:40;;;;;;;20.30;16.30;;;5.10;99.90;;;;;;5076970;28;20182;-60
2022/12/01 00:51:06;;;;;;;22.43;17.87;;;5.50;99.90;;;;;;5077257;28;20249;-60
2022/12/01 00:53:32;;;;;;;27.47;18.57;;;5.20;99.90;;;;;;5077096;28;20177;-60
2022/12/01 00:55:57;;;;;;;23.67;18.23;;;5.10;99.90;;;;;;5057928;28;20259;-61
2022/12/01 00:58:23;;;;;;;22.60;17.60;;;5.00;99.90;;;;;;5076894;28;20264;-63
2022/12/01 01:00:57;;;;;;;25.17;19.50;;;4.90;99.90;;;;;;5076670;28;20166;-61
2022/12/01 01:03:23;;;;;;;25.20;19.70;;;4.90;99.90;;;;;;5076679;28;20240;-62
2022/12/01 01:05:48;;;;;;;23.80;19.13;;;5.00;99.90;;;;;;5076308;28;20681;-60
2022/12/01 01:08:14;;;;;;;23.87;18.17;;;5.60;99.90;;;;;;5076583;28;20170;-60
2022/12/01 01:10:43;;;;;;;23.90;18.47;;;5.00;99.90;;;;;;5075727;28;20204;-60
2022/12/01 01:13:10;;;;;;;21.57;16.50;;;5.00;99.90;;;;;;5076650;28;20174;-60
2022/12/01 01:15:36;;;;;;;21.33;17.00;;;5.90;99.90;;;;;;5076172;28;20186;-59
2022/12/01 01:18:01;;;;;;;16.00;13.80;;;4.90;99.90;;;;;;5075636;28;20198;-59
2022/12/01 01:20:28;;;;;;;14.07;12.50;;;4.80;99.90;;;;;;5075469;28;20225;-61
2022/12/01 01:22:53;;;;;;;15.00;12.80;;;4.60;99.90;;;;;;5075176;28;20195;-58
2022/12/01 01:25:19;;;;;;;15.03;13.27;;;4.60;99.90;;;;;;5075451;28;20724;-60
2022/12/01 01:27:44;;;;;;;17.73;13.97;;;4.50;99.90;;;;;;5075759;28;20190;-60
2022/12/01 01:30:11;;;;;;;17.47;14.23;;;5.30;99.90;;;;;;5057850;28;20178;-59
2022/12/01 01:32:36;;;;;;;18.57;15.20;;;4.50;99.90;;;;;;5075113;28;20200;-58
2022/12/01 01:35:02;;;;;;;22.03;17.47;;;4.50;99.90;;;;;;5075499;28;20555;-60
2022/12/01 01:37:27;;;;;;;20.97;16.27;;;4.60;99.90;;;;;;5074579;28;20253;-59
2022/12/01 01:39:53;;;;;;;20.13;16.40;;;4.60;99.90;;;;;;5076943;28;20174;-60
2022/12/01 01:42:19;;;;;;;20.60;16.47;;;5.70;99.90;;;;;;5078850;28;20241;-59
2022/12/01 01:44:53;;;;;;;21.17;16.30;;;4.70;99.90;;;;;;5078597;28;20248;-60
2022/12/01 01:47:37;;;;;;;22.23;16.87;;;4.70;99.90;;;;;;5078764;28;20165;-62
2022/12/01 01:50:08;;;;;;;19.90;16.80;;;4.70;99.90;;;;;;5079584;28;20527;-61
2022/12/01 01:52:39;;;;;;;20.20;16.23;;;4.80;99.90;;;;;;5061165;28;20182;-60
2022/12/01 01:55:06;;;;;;;20.07;15.87;;;4.80;99.90;;;;;;5078824;28;20213;-63
2022/12/01 01:57:33;;;;;;;20.53;16.07;;;4.70;99.90;;;;;;5078851;28;20159;-59
2022/12/01 02:00:06;;;;;;;21.27;16.33;;;4.70;99.90;;;;;;5078967;28;20189;-63
2022/12/01 02:02:39;;;;;;;18.10;14.83;;;4.80;99.90;;;;;;5079667;28;20544;-61
2022/12/01 02:05:09;;;;;;;20.97;16.40;;;4.70;99.90;;;;;;5078653;28;20223;-61
2022/12/01 02:07:39;;;;;;;13.83;12.33;;;4.50;99.90;;;;;;5079401;28;20181;-58
2022/12/01 02:10:07;;;;;;;15.37;13.40;;;4.50;99.90;;;;;;5078093;28;20242;-60
2022/12/01 02:12:48;;;;;;;15.67;13.40;;;4.50;99.90;;;;;;5078996;28;20166;-57
2022/12/01 02:15:29;;;;;;;15.57;13.10;;;4.40;99.90;;;;;;5078358;28;20190;-60
2022/12/01 02:18:02;;;;;;;14.83;12.73;;;4.30;99.90;;;;;;5078460;28;20194;-60
2022/12/01 02:20:58;;;;;;;15.27;13.10;;;4.30;99.90;;;;;;5060882;28;20236;-61
2022/12/01 02:23:53;;;;;;;17.17;13.77;;;4.40;99.90;;;;;;5078636;28;20173;-56
2022/12/01 02:26:43;;;;;;;16.80;13.83;;;4.40;99.90;;;;;;5077548;28;20563;-59
2022/12/01 02:29:17;;;;;;;20.70;15.53;;;4.40;99.90;;;;;;5079471;28;20186;-60
2022/12/01 02:31:51;;;;;;;19.63;15.83;;;4.30;99.90;;;;;;5079527;28;20199;-57
2022/12/01 02:34:22;;;;;;;23.73;16.23;;;4.20;99.90;;;;;;5078834;28;20185;-56
2022/12/01 02:37:13;;;;;;;21.60;16.77;;;4.30;99.90;;;;;;5077782;28;20543;-59
2022/12/01 02:39:47;;;;;;;24.27;18.10;;;4.30;99.90;;;;;;4977399;28;20318;-60
2022/12/01 02:45:10;;;;;;;22.20;17.63;;;4.50;99.90;;;;;;4977124;28;20208;-57
2022/12/01 02:47:38;;;;;;;21.43;16.20;;;4.30;99.90;;;;;;4960671;28;20237;-57
2022/12/01 02:50:06;;;;;;;19.40;14.97;;;4.30;99.90;;;;;;4977220;28;20194;-57
2022/12/01 02:52:33;;;;;;;14.23;11.57;;;4.30;99.90;;;;;;4976379;28;20204;-60
2022/12/01 02:54:58;;;;;;;14.57;12.77;;;4.10;99.90;;;;;;4977114;28;20189;-61
2022/12/01 02:57:24;;;;;;;14.30;12.20;;;4.00;99.90;;;;;;4977547;28;20232;-60
2022/12/01 02:59:53;;;;;;;13.47;12.00;;;3.80;99.90;;;;;;4977628;28;20674;-57
2022/12/01 03:02:31;;;;;;;13.27;11.10;;;3.70;99.90;;;;;;4977732;28;20178;-59
2022/12/01 03:05:14;;;;;;;13.37;11.77;;;3.80;99.90;;;;;;4977089;28;20244;-58
2022/12/01 03:07:42;;;;;;;12.37;11.07;;;3.80;99.90;;;;;;4977781;28;20174;-62
2022/12/01 03:10:35;;;;;;;12.93;11.43;;;3.90;99.90;;;;;;4977392;28;20221;-60
2022/12/01 03:13:16;;;;;;;13.13;11.30;;;3.80;99.90;;;;;;4961791;28;20174;-55
2022/12/01 03:15:44;;;;;;;13.43;12.03;;;3.80;99.90;;;;;;4987309;28;20908;-58
2022/12/01 03:18:35;;;;;;;12.80;11.00;;;3.70;99.90;;;;;;5061458;28;20198;-55
2022/12/01 03:21:40;;;;;;;12.37;10.93;;;3.70;99.90;;;;;;5079054;28;20193;-61
2022/12/01 03:24:22;;;;;;;13.03;11.43;;;3.60;99.90;;;;;;5078172;28;20162;-58
2022/12/01 03:26:55;;;;;;;14.43;12.33;;;3.70;99.90;;;;;;5079140;28;20761;-56
2022/12/01 03:29:32;;;;;;;13.07;11.67;;;3.80;99.90;;;;;;5078563;28;20420;-61
2022/12/01 03:32:04;;;;;;;24.30;13.70;;;3.90;99.90;;;;;;5078478;28;20508;-57
2022/12/01 03:34:46;;;;;;;12.47;11.13;;;3.80;99.90;;;;;;5078468;28;20194;-58
2022/12/01 03:37:38;;;;;;;13.03;10.90;;;3.80;99.90;;;;;;5077298;28;20631;-64
2022/12/01 03:40:08;;;;;;;12.20;10.90;;;3.70;99.90;;;;;;5066750;28;20190;-57
2022/12/01 03:43:08;;;;;;;27.20;12.83;;;3.70;99.90;;;;;;5077326;28;20713;-56
2022/12/01 03:45:57;;;;;;;12.53;11.23;;;3.60;99.90;;;;;;4975473;28;20211;-59
2022/12/01 03:48:24;;;;;;;15.50;12.37;;;3.80;99.90;;;;;;4975872;28;20675;-58
2022/12/01 03:50:49;;;;;;;14.13;11.17;;;3.90;99.90;;;;;;4974469;28;20409;-59
2022/12/01 03:53:24;;;;;;;16.43;12.93;;;3.90;99.90;;;;;;4974584;28;20364;-60
2022/12/01 03:55:56;;;;;;;14.77;12.07;;;3.70;99.90;;;;;;4973923;28;20245;-60
2022/12/01 03:58:33;;;;;;;13.67;11.70;;;3.80;99.90;;;;;;4975496;28;20469;-63
2022/12/01 04:01:01;;;;;;;14.37;11.70;;;3.80;99.90;;;;;;4959215;28;20184;-60
2022/12/01 04:03:27;;;;;;;16.23;12.50;;;3.90;99.90;;;;;;4974720;28;20487;-60
2022/12/01 04:05:52;;;;;;;16.30;13.10;;;3.90;99.90;;;;;;4975613;28;20205;-60
2022/12/01 04:08:18;;;;;;;14.73;12.97;;;3.90;99.90;;;;;;4975607;28;20198;-61
2022/12/01 04:10:43;;;;;;;18.40;12.80;;;4.30;99.90;;;;;;4975956;28;20264;-62
2022/12/01 04:13:21;;;;;;;35.37;13.63;;;4.00;99.90;;;;;;4975905;28;20173;-60
2022/12/01 04:15:55;;;;;;;13.00;11.27;;;3.80;99.90;;;;;;4975408;28;20205;-59
2022/12/01 04:18:21;;;;;;;16.33;12.33;;;3.70;99.90;;;;;;4975500;28;20209;-62
2022/12/01 04:20:48;;;;;;;15.90;12.33;;;3.50;99.90;;;;;;5012328;28;20189;-61
2022/12/01 04:23:58;;;;;;;15.27;12.70;;;3.50;99.90;;;;;;5076906;28;20522;-60
2022/12/01 04:26:02;;;;;;;15.33;12.40;;;5.20;99.90;;;;;;5075950;28;20236;-60
2022/12/01 04:28:27;;;;;;;15.23;12.50;;;4.30;99.90;;;;;;5059150;28;20427;-60
2022/12/01 04:30:53;;;;;;;14.70;12.40;;;4.60;99.90;;;;;;5077044;28;20608;-63
2022/12/01 04:33:19;;;;;;;17.63;12.63;;;3.60;99.90;;;;;;5076782;28;20198;-61
2022/12/01 04:35:44;;;;;;;15.73;12.70;;;3.50;99.90;;;;;;5057703;28;20209;-62
2022/12/01 04:38:10;;;;;;;16.30;13.50;;;3.60;99.90;;;;;;5057848;28;20209;-62
2022/12/01 04:40:37;;;;;;;15.73;12.87;;;3.60;99.90;;;;;;5076702;28;20179;-62
2022/12/01 04:43:03;;;;;;;18.10;12.33;;;3.70;99.90;;;;;;5058766;28;20181;-60
2022/12/01 04:45:28;;;;;;;15.20;12.13;;;3.80;99.90;;;;;;5076172;28;20182;-62
2022/12/01 04:47:54;;;;;;;13.97;12.47;;;3.90;99.90;;;;;;5058330;28;20200;-62
2022/12/01 04:50:19;;;;;;;14.80;12.97;;;3.90;99.90;;;;;;5076129;28;20179;-62
2022/12/01 04:52:45;;;;;;;15.53;12.73;;;5.50;99.90;;;;;;5075566;28;20589;-60
2022/12/01 04:55:11;;;;;;;15.17;12.83;;;4.00;99.90;;;;;;5076758;28;20246;-62
2022/12/01 04:57:38;;;;;;;14.97;13.07;;;4.10;99.90;;;;;;5076249;28;20197;-60
2022/12/01 05:00:11;;;;;;;13.87;12.00;;;4.10;99.90;;;;;;5076518;28;20579;-60
2022/12/01 05:02:38;;;;;;;13.60;11.63;;;4.00;99.90;;;;;;5058313;28;20174;-59
2022/12/01 05:05:05;;;;;;;21.87;14.27;;;4.00;99.90;;;;;;5075266;28;20198;-61
2022/12/01 05:10:01;;;;;;;12.77;11.40;;;3.90;99.90;;;;;;5053729;28;20219;-61
2022/12/01 05:12:27;;;;;;;15.77;13.33;;;4.00;99.90;;;;;;5055610;28;20175;-60
2022/12/01 05:14:53;;;;;;;12.83;11.43;;;3.90;99.90;;;;;;5054738;28;20183;-59
2022/12/01 05:17:18;;;;;;;11.87;10.33;;;3.90;99.90;;;;;;5054817;28;20279;-60
2022/12/01 05:22:28;;;;;;;13.63;10.90;;;4.00;99.90;;;;;;5054286;28;20178;-61
2022/12/01 05:24:54;;;;;;;13.77;11.80;;;3.80;99.90;;;;;;5054253;28;20652;-57
2022/12/01 05:27:20;;;;;;;16.73;9.47;;;3.70;99.90;;;;;;5054951;28;20194;-58
2022/12/01 05:29:45;;;;;;;10.50;9.40;;;3.70;99.90;;;;;;5037209;28;20179;-60
2022/12/01 05:32:11;;;;;;;12.40;10.57;;;3.70;99.90;;;;;;5054705;28;20262;-60
2022/12/01 05:34:36;;;;;;;10.70;9.60;;;3.80;99.90;;;;;;5054754;28;20171;-53
2022/12/01 05:37:02;;;;;;;10.73;9.30;;;4.00;99.90;;;;;;5053463;28;20203;-60
2022/12/01 05:39:27;;;;;;;10.07;9.00;;;4.00;99.90;;;;;;5036064;28;20664;-61
2022/12/01 05:41:53;;;;;;;9.53;8.43;;;4.00;99.90;;;;;;5036290;28;20175;-56
2022/12/01 05:44:19;;;;;;;10.00;8.80;;;4.00;99.90;;;;;;5054000;28;20178;-57
2022/12/01 05:46:44;;;;;;;9.87;8.87;;;4.00;99.90;;;;;;5036301;28;20451;-59
2022/12/01 05:49:10;;;;;;;10.33;9.23;;;4.00;99.90;;;;;;5054394;28;20175;-61
2022/12/01 05:51:35;;;;;;;9.70;8.70;;;4.00;99.90;;;;;;5054015;28;20579;-58
2022/12/01 05:54:01;;;;;;;9.97;8.90;;;3.90;99.90;;;;;;5054164;28;20195;-59
2022/12/01 05:56:27;;;;;;;10.57;9.47;;;3.90;99.90;;;;;;5054554;28;20600;-61
2022/12/01 05:58:52;;;;;;;10.17;9.17;;;3.60;99.90;;;;;;5053896;28;20214;-56
2022/12/01 06:01:18;;;;;;;11.00;9.57;;;3.70;99.90;;;;;;5054633;28;20183;-59
2022/12/01 06:03:43;;;;;;;11.77;9.87;;;3.60;99.90;;;;;;5053442;28;20182;-59
2022/12/01 06:06:09;;;;;;;10.80;8.97;;;3.70;99.90;;;;;;5036346;28;20171;-63
2022/12/01 06:08:34;;;;;;;11.90;9.30;;;3.70;99.90;;;;;;5053800;28;20387;-57
2022/12/01 06:11:00;;;;;;;9.57;8.57;;;4.00;99.90;;;;;;5037173;28;20237;-59
2022/12/01 06:13:26;;;;;;;14.03;9.63;;;3.70;99.90;;;;;;5054815;28;20171;-58
2022/12/01 06:15:59;;;;;;;11.77;9.90;;;3.50;99.90;;;;;;5053310;28;20179;-60
2022/12/01 06:18:26;;;;;;;17.17;10.47;;;5.10;99.90;;;;;;5054346;28;20210;-57
2022/12/01 06:20:52;;;;;;;10.43;9.30;;;3.20;99.90;;;;;;5053542;28;20254;-60
2022/12/01 06:23:17;;;;;;;21.97;10.43;;;3.00;99.90;;;;;;5053453;28;20214;-57
2022/12/01 06:25:43;;;;;;;11.07;9.90;;;3.10;99.90;;;;;;5054688;28;20186;-58
2022/12/01 06:28:09;;;;;;;10.50;9.40;;;3.20;99.90;;;;;;5058170;28;20191;-59
2022/12/01 06:30:34;;;;;;;11.30;10.10;;;3.30;99.90;;;;;;5057346;28;20190;-61
2022/12/01 06:33:00;;;;;;;13.70;9.37;;;3.50;99.90;;;;;;5057408;28;20179;-55
2022/12/01 06:35:25;;;;;;;13.60;9.50;;;3.60;99.90;;;;;;5057035;28;20171;-56
2022/12/01 06:37:53;;;;;;;10.33;9.23;;;3.50;99.90;;;;;;5038510;28;20286;-62
2022/12/01 06:40:19;;;;;;;11.77;9.77;;;3.50;99.90;;;;;;5057355;28;20167;-55
2022/12/01 06:42:45;;;;;;;10.20;9.07;;;3.40;99.90;;;;;;5057004;28;20178;-57
2022/12/01 06:45:11;;;;;;;11.00;9.90;;;3.50;99.90;;;;;;5057450;28;20171;-58
2022/12/01 06:47:36;;;;;;;13.00;9.73;;;3.40;99.90;;;;;;5057592;28;20304;-61
2022/12/01 06:50:04;;;;;;;11.63;9.10;;;3.60;99.90;;;;;;5039436;28;20172;-59
2022/12/01 06:52:30;;;;;;;10.63;9.53;;;3.60;99.90;;;;;;5056689;28;20164;-61
2022/12/01 06:54:55;;;;;;;11.10;9.33;;;3.80;99.90;;;;;;5057681;28;20171;-59
2022/12/01 06:57:21;;;;;;;17.47;10.37;;;3.90;99.90;;;;;;5057836;28;20183;-61
2022/12/01 06:59:46;;;;;;;11.63;10.17;;;3.90;99.90;;;;;;5057839;28;20726;-61
2022/12/01 07:02:12;;;;;;;14.07;10.40;;;3.80;99.90;;;;;;5058442;28;20174;-58
2022/12/01 07:04:37;;;;;;;12.80;10.20;;;3.50;99.90;;;;;;5057787;28;20262;-55
2022/12/01 07:07:06;;;;;;;15.43;10.57;;;3.30;99.90;;;;;;5039307;28;20205;-62
2022/12/01 07:09:32;;;;;;;15.53;10.83;;;3.20;99.90;;;;;;5057654;28;20187;-58
2022/12/01 07:11:58;;;;;;;12.07;10.27;;;3.30;99.90;;;;;;5058047;28;20648;-62
2022/12/01 07:14:28;;;;;;;11.93;9.73;;;3.40;99.90;;;;;;5057508;28;20182;-62
2022/12/01 07:16:53;;;;;;;11.50;10.03;;;3.50;99.90;;;;;;5057175;28;20797;-59
2022/12/01 07:19:19;;;;;;;14.77;9.57;;;3.50;99.90;;;;;;5057749;28;20195;-54
2022/12/01 07:21:44;;;;;;;10.70;9.27;;;4.60;99.90;;;;;;5037872;28;20198;-60
2022/12/01 07:24:13;;;;;;;10.73;9.20;;;3.40;99.90;;;;;;5056873;28;20513;-59
2022/12/01 07:26:39;;;;;;;10.90;9.60;;;3.40;99.90;;;;;;5056402;28;20552;-56
2022/12/01 07:29:05;;;;;;;11.17;9.97;;;3.40;99.90;;;;;;5057587;28;20189;-61
2022/12/01 07:31:31;;;;;;;11.23;9.30;;;3.60;99.90;;;;;;5039960;28;20179;-60
2022/12/01 07:33:57;;;;;;;10.37;8.83;;;3.90;99.90;;;;;;5057198;28;20172;-59
2022/12/01 07:36:23;;;;;;;10.17;9.03;;;4.00;99.90;;;;;;5056816;28;20185;-61
2022/12/01 07:38:48;;;;;;;10.17;8.97;;;4.20;99.90;;;;;;5055651;28;20203;-57
2022/12/01 07:41:19;;;;;;;10.13;9.03;;;4.20;99.90;;;;;;5055114;28;20206;-56
2022/12/01 07:43:46;;;;;;;9.70;8.60;;;4.30;99.90;;;;;;5055928;28;20186;-58
2022/12/01 07:46:17;;;;;;;9.17;8.17;;;4.30;99.90;;;;;;5057568;28;20166;-56
2022/12/01 07:48:43;;;;;;;9.70;8.70;;;4.40;99.90;;;;;;5056920;28;20536;-58
2022/12/01 07:51:11;;;;;;;10.03;8.93;;;4.60;99.90;;;;;;5057415;28;20179;-58
2022/12/01 07:53:36;;;;;;;23.13;19.10;;;4.60;99.90;;;;;;5056623;28;20206;-55
2022/12/01 07:56:04;;;;;;;87.63;63.77;;;4.70;99.90;;;;;;5058012;28;20175;-59
2022/12/01 07:58:30;;;;;;;19.23;15.93;;;4.80;99.90;;;;;;5059124;28;20614;-59
2022/12/01 08:00:56;;;;;;;10.10;9.03;;;4.70;99.90;;;;;;5056524;28;20187;-56
2022/12/01 08:03:23;;;;;;;8.80;7.80;;;4.70;99.90;;;;;;5056595;28;20179;-54
2022/12/01 08:05:56;;;;;;;10.93;9.77;;;4.70;99.90;;;;;;5055193;28;20721;-54
2022/12/01 08:08:21;;;;;;;14.77;13.17;;;4.80;99.90;;;;;;5040449;28;20317;-58
2022/12/01 08:10:47;;;;;;;13.00;11.03;;;4.90;99.90;;;;;;5056644;28;20198;-60
2022/12/01 08:13:12;;;;;;;10.37;8.90;;;4.80;99.90;;;;;;5057958;28;20175;-55
2022/12/01 08:15:38;;;;;;;9.60;8.60;;;4.80;99.90;;;;;;5056932;28;20185;-61
2022/12/01 08:18:04;;;;;;;10.20;9.20;;;4.90;99.90;;;;;;5055945;28;20209;-60
2022/12/01 08:20:29;;;;;;;10.40;9.30;;;4.80;99.90;;;;;;5055403;28;20627;-57
2022/12/01 08:22:55;;;;;;;10.33;9.33;;;4.90;99.90;;;;;;5054410;28;20226;-59
2022/12/01 08:25:20;;;;;;;10.13;9.00;;;5.00;99.90;;;;;;5051736;28;20517;-57
2022/12/01 08:27:46;;;;;;;11.00;9.83;;;5.00;99.90;;;;;;5050559;28;20229;-57
2022/12/01 08:30:12;;;;;;;11.10;9.90;;;5.10;99.90;;;;;;5033278;28;20163;-65
2022/12/01 08:32:37;;;;;;;11.87;10.37;;;5.30;99.90;;;;;;5050970;28;20191;-64
2022/12/01 08:35:03;;;;;;;11.03;9.83;;;5.40;99.90;;;;;;5052436;28;20233;-64
2022/12/01 08:37:29;;;;;;;11.03;9.83;;;5.40;99.90;;;;;;5053741;28;20202;-64
2022/12/01 08:39:54;;;;;;;11.57;10.07;;;5.40;99.90;;;;;;5054446;28;20274;-64
2022/12/01 08:42:20;;;;;;;10.97;9.63;;;5.50;99.90;;;;;;5054062;28;20379;-62
2022/12/01 08:44:46;;;;;;;11.63;10.43;;;5.50;99.90;;;;;;5053174;28;20265;-60
2022/12/01 08:47:11;;;;;;;11.70;10.13;;;5.60;99.90;;;;;;5054113;28;20549;-63
2022/12/01 08:49:37;;;;;;;12.07;10.20;;;5.50;99.90;;;;;;5058580;28;20175;-60
2022/12/01 08:52:02;;;;;;;11.13;9.70;;;5.60;99.90;;;;;;5043252;28;20186;-59
2022/12/01 08:54:28;;;;;;;11.73;10.53;;;5.70;99.90;;;;;;5060911;28;20648;-61
2022/12/01 08:56:53;;;;;;;11.60;10.13;;;5.70;99.90;;;;;;5061950;28;20668;-61
2022/12/01 08:59:19;;;;;;;11.40;10.10;;;5.80;99.90;;;;;;5062098;28;20205;-58
2022/12/01 09:01:56;;;;;;;11.07;9.87;;;5.90;99.90;;;;;;5044465;28;20262;-63
2022/12/01 09:04:23;;;;;;;12.13;10.67;;;5.90;99.90;;;;;;5042895;28;20578;-61
2022/12/01 09:06:50;;;;;;;11.70;10.27;;;6.00;99.90;;;;;;5060550;28;20183;-60
2022/12/01 09:09:19;;;;;;;12.70;11.40;;;6.00;99.90;;;;;;5061887;28;20197;-63
2022/12/01 09:11:45;;;;;;;10.97;9.87;;;6.20;99.90;;;;;;5062111;28;20690;-63
2022/12/01 09:14:12;;;;;;;13.73;12.20;;;6.20;99.90;;;;;;5061744;28;20173;-63
2022/12/01 09:16:39;;;;;;;14.60;12.90;;;6.40;99.90;;;;;;5062199;28;20274;-60
2022/12/01 09:19:05;;;;;;;13.83;12.17;;;6.50;99.90;;;;;;5062203;28;20202;-63
2022/12/01 09:21:32;;;;;;;13.90;11.87;;;6.60;99.90;;;;;;5061383;28;20167;-61
2022/12/01 09:23:59;;;;;;;12.87;11.40;;;6.80;99.90;;;;;;5044036;28;20525;-64
2022/12/01 09:26:25;;;;;;;13.33;11.77;;;6.80;99.90;;;;;;5062642;28;20206;-61
2022/12/01 09:28:55;;;;;;;12.43;11.00;;;6.90;99.90;;;;;;5062337;28;20175;-63
2022/12/01 09:31:22;;;;;;;11.43;10.20;;;7.00;99.90;;;;;;5062448;28;20536;-61
2022/12/01 09:33:53;;;;;;;12.00;10.73;;;7.30;99.90;;;;;;5045229;28;20179;-61
2022/12/01 09:36:18;;;;;;;12.67;11.23;;;7.30;99.90;;;;;;5044649;28;20175;-63
2022/12/01 09:38:44;;;;;;;12.37;11.07;;;7.50;99.90;;;;;;5045252;28;20210;-59
2022/12/01 09:41:24;;;;;;;14.50;12.90;;;7.60;99.90;;;;;;5062871;28;20171;-61
2022/12/01 09:43:59;;;;;;;15.77;14.17;;;7.60;99.90;;;;;;5062949;28;20254;-64
2022/12/01 09:46:32;;;;;;;16.30;13.10;;;7.70;99.90;;;;;;5063849;28;20191;-61
2022/12/01 09:49:01;;;;;;;14.63;12.87;;;7.90;99.90;;;;;;5064465;28;20178;-61
2022/12/01 09:51:28;;;;;;;13.43;12.03;;;7.80;99.90;;;;;;5043816;28;20163;-61
2022/12/01 09:53:58;;;;;;;12.50;11.20;;;7.80;99.90;;;;;;5062238;28;20182;-62
2022/12/01 09:56:29;;;;;;;14.47;12.17;;;7.80;99.90;;;;;;5063047;28;20197;-63
2022/12/01 09:59:06;;;;;;;14.40;12.90;;;8.10;99.90;;;;;;5062714;28;20194;-61
2022/12/01 10:01:37;;;;;;;14.63;12.43;;;7.90;99.90;;;;;;5048584;28;20554;-61
2022/12/01 10:04:18;;;;;;;14.50;12.80;;;8.00;99.90;;;;;;5068982;28;20262;-64
2022/12/01 10:06:59;;;;;;;13.67;11.53;;;8.10;99.90;;;;;;5070111;28;20190;-60
2022/12/01 10:09:46;;;;;;;15.37;12.57;;;8.00;99.90;;;;;;5070028;28;20505;-63
2022/12/01 10:12:17;;;;;;;14.77;12.63;;;8.20;99.90;;;;;;5070738;28;20182;-64
2022/12/01 10:14:47;;;;;;;15.27;13.50;;;8.30;99.90;;;;;;5069297;28;20167;-64
2022/12/01 10:17:35;;;;;;;17.83;13.90;;;8.40;99.90;;;;;;5053181;28;20202;-62
2022/12/01 10:20:20;;;;;;;15.10;13.40;;;8.40;99.90;;;;;;5070081;28;20202;-63
2022/12/01 10:23:04;;;;;;;14.47;12.63;;;8.20;99.90;;;;;;5070104;28;20168;-65
2022/12/01 10:25:57;;;;;;;16.37;13.10;;;8.00;99.90;;;;;;5070273;28;20163;-65
2022/12/01 10:28:46;;;;;;;16.40;13.23;;;7.90;99.90;;;;;;5070736;28;20206;-63
2022/12/01 10:31:33;;;;;;;18.77;15.47;;;7.70;99.90;;;;;;5052568;28;20176;-63
2022/12/01 10:34:02;;;;;;;19.00;14.73;;;7.50;99.90;;;;;;5070932;28;20266;-65
2022/12/01 10:36:31;;;;;;;17.97;15.10;;;7.20;99.90;;;;;;5052843;28;20206;-63
2022/12/01 10:38:57;;;;;;;16.13;14.43;;;7.10;99.90;;;;;;5070463;28;20214;-64
2022/12/01 10:41:26;;;;;;;15.20;13.40;;;7.10;99.90;;;;;;5070776;28;20174;-64
2022/12/01 10:43:59;;;;;;;14.80;13.20;;;7.30;99.90;;;;;;5070761;28;20231;-63
2022/12/01 10:46:33;;;;;;;16.97;14.53;;;7.50;99.90;;;;;;5070574;28;20343;-64
2022/12/01 10:49:10;;;;;;;15.93;13.30;;;7.50;99.90;;;;;;5070874;28;20178;-65
2022/12/01 10:51:53;;;;;;;15.57;13.87;;;7.30;99.90;;;;;;5053165;28;20194;-64
2022/12/01 10:54:21;;;;;;;18.33;15.37;;;7.40;99.90;;;;;;5069017;28;20235;-63
2022/12/01 10:56:49;;;;;;;16.13;13.93;;;7.50;99.90;;;;;;5069497;28;20668;-61
2022/12/01 10:59:32;;;;;;;16.23;13.90;;;7.00;99.90;;;;;;5064132;28;20202;-59
2022/12/01 11:02:00;;;;;;;15.23;13.30;;;6.90;99.90;;;;;;5064512;28;20175;-60
2022/12/01 11:04:28;;;;;;;19.07;15.47;;;6.80;99.90;;;;;;5063904;28;20182;-61
2022/12/01 11:06:54;;;;;;;20.23;16.60;;;6.90;99.90;;;;;;5098231;22;20202;-53
2022/12/01 11:09:26;;;;;;;19.13;15.50;;;6.80;99.90;;;;;;5033736;28;20688;-53
2022/12/01 11:12:01;;;;;;;20.50;16.70;;;6.70;99.90;;;;;;5033472;28;20572;-56
2022/12/01 11:14:56;;;;;;;18.57;15.13;;;6.80;99.90;;;;;;5033667;28;20175;-53
2022/12/01 11:17:21;;;;;;;19.13;16.00;;;6.60;99.90;;;;;;5033531;28;20212;-55
2022/12/01 11:19:47;;;;;;;20.03;15.63;;;6.80;99.90;;;;;;5034134;28;20264;-56
2022/12/01 11:22:23;;;;;;;19.63;16.33;;;6.90;99.90;;;;;;5033617;28;20170;-55
2022/12/01 11:24:51;;;;;;;19.77;16.47;;;6.90;99.90;;;;;;5033404;28;20639;-56
2022/12/01 11:27:26;;;;;;;23.90;18.40;;;7.20;99.90;;;;;;5033767;28;20199;-55
2022/12/01 11:29:55;;;;;;;24.90;19.33;;;7.40;99.90;;;;;;5034054;28;20176;-54
2022/12/01 11:32:26;;;;;;;22.53;18.63;;;7.50;99.90;;;;;;5033848;28;20168;-55
2022/12/01 11:35:04;;;;;;;24.03;18.53;;;7.70;99.90;;;;;;5033556;28;20222;-53
2022/12/01 11:37:42;;;;;;;23.97;19.37;;;8.00;99.90;;;;;;5032829;28;20191;-56
2022/12/01 11:40:14;;;;;;;23.97;18.30;;;7.80;99.90;;;;;;5033787;28;20203;-54
2022/12/01 11:42:40;;;;;;;22.10;17.17;;;7.90;99.90;;;;;;5033564;28;20168;-55
2022/12/01 11:45:21;;;;;;;24.00;18.13;;;8.20;99.90;;;;;;5033424;28;20163;-53
2022/12/01 11:48:11;;;;;;;24.03;19.83;;;8.20;99.90;;;;;;5033442;28;20782;-53
2022/12/01 11:50:41;;;;;;;22.23;18.17;;;8.00;99.90;;;;;;5033367;28;20218;-58
2022/12/01 11:53:30;;;;;;;22.73;18.60;;;8.10;99.90;;;;;;5033375;28;20179;-53
2022/12/01 11:56:14;;;;;;;21.37;17.03;;;8.00;99.90;;;;;;5033417;28;20645;-56
2022/12/01 11:58:41;;;;;;;22.90;17.67;;;8.20;99.90;;;;;;5033022;28;20203;-55
2022/12/01 12:01:22;;;;;;;21.70;16.90;;;8.50;99.90;;;;;;5033454;28;20175;-53
2022/12/01 12:04:02;;;;;;;21.17;16.90;;;8.70;99.90;;;;;;5032929;28;20175;-55
2022/12/01 12:06:49;;;;;;;20.13;16.13;;;8.90;99.90;;;;;;5032542;28;20679;-57
2022/12/01 12:09:15;;;;;;;20.40;16.97;;;8.90;99.90;;;;;;5032935;28;20183;-56
2022/12/01 12:12:21;;;;;;;21.57;16.50;;;8.80;99.90;;;;;;5033261;28;20593;-56
2022/12/01 12:15:08;;;;;;;19.50;16.20;;;8.60;99.90;;;;;;5032792;28;20225;-57
2022/12/01 12:17:45;;;;;;;21.10;16.40;;;8.30;99.90;;;;;;5032871;28;20249;-56
2022/12/01 12:20:19;;;;;;;17.87;15.27;;;7.90;99.90;;;;;;5032698;28;20274;-54
2022/12/01 12:23:08;;;;;;;18.40;15.83;;;7.60;99.90;;;;;;5032271;28;20648;-57
2022/12/01 12:25:48;;;;;;;20.80;17.47;;;7.60;99.90;;;;;;5031481;28;20176;-57
2022/12/01 12:28:45;;;;;;;19.03;16.17;;;7.70;99.90;;;;;;5032863;28;20273;-56
2022/12/01 12:31:17;;;;;;;17.83;15.53;;;7.90;99.90;;;;;;5032702;28;20202;-57
2022/12/01 12:34:03;;;;;;;18.30;16.03;;;7.80;99.90;;;;;;5032586;28;20183;-53
2022/12/01 12:36:40;;;;;;;19.40;16.47;;;7.50;99.90;;;;;;5031493;28;20229;-53
2022/12/01 12:39:27;;;;;;;20.83;17.60;;;7.10;99.90;;;;;;5032458;28;20595;-54
2022/12/01 12:41:55;;;;;;;23.50;19.27;;;6.50;99.90;;;;;;5032585;28;20683;-56
2022/12/01 12:44:42;;;;;;;23.70;19.67;;;6.30;99.90;;;;;;5032368;28;20172;-58
2022/12/01 12:47:24;;;;;;;22.77;19.27;;;6.00;99.90;;;;;;5032477;28;20609;-56
2022/12/01 12:50:15;;;;;;;23.50;18.63;;;6.20;99.90;;;;;;5032263;28;20187;-57
2022/12/01 12:52:46;;;;;;;24.40;19.47;;;6.50;99.90;;;;;;5032225;28;20251;-57
2022/12/01 12:55:20;;;;;;;23.63;18.97;;;6.70;99.90;;;;;;5032182;28;20180;-57
2022/12/01 12:57:57;;;;;;;23.70;19.07;;;6.90;99.90;;;;;;5032091;28;20195;-55
2022/12/01 13:00:26;;;;;;;24.03;19.17;;;7.10;99.90;;;;;;5032384;28;20186;-57
2022/12/01 13:03:01;;;;;;;24.73;20.60;;;7.10;99.90;;;;;;5032188;28;20167;-57
2022/12/01 13:05:48;;;;;;;24.47;18.63;;;6.90;99.90;;;;;;5031723;28;20171;-57
2022/12/01 13:08:19;;;;;;;24.87;20.03;;;6.50;99.90;;;;;;5031831;28;20217;-53